createdAt,value
2017-09-10T15:58:42.304Z,58.40
2017-09-10T16:02:07.839Z,62.90
2017-09-10T16:04:36.080Z,61.40
2017-09-10T16:07:04.330Z,63.10
2017-09-10T16:09:32.554Z,64.60
2017-09-10T16:12:01.589Z,68.50
2017-09-10T16:14:29.841Z,68.20
2017-09-10T16:16:58.097Z,68.70
2017-09-10T16:19:26.607Z,69.50
2017-09-10T16:21:54.869Z,71.30
2017-09-10T16:24:23.132Z,71.90
2017-09-10T16:26:51.393Z,72.20
2017-09-10T16:29:19.632Z,72.30
2017-09-10T16:31:47.706Z,73.60
2017-09-10T16:34:16.012Z,74.40
2017-09-10T16:36:44.269Z,75.50
2017-09-10T16:39:12.497Z,75.50
2017-09-10T16:41:41.541Z,75.30
2017-09-10T16:44:09.579Z,75.10
2017-09-10T16:46:37.799Z,76.50
2017-09-10T16:49:06.840Z,77.40
2017-09-10T16:51:35.097Z,77.40
2017-09-10T16:54:03.324Z,77.70
2017-09-10T16:56:31.392Z,78.00
2017-09-10T16:58:59.611Z,77.40
2017-09-10T17:01:27.832Z,77.70
2017-09-10T17:03:56.136Z,77.90
2017-09-10T17:06:24.388Z,78.00
2017-09-10T17:08:53.371Z,78.20
2017-09-10T17:11:21.651Z,78.20
2017-09-10T17:13:49.864Z,79.30
2017-09-10T17:16:18.855Z,79.40
2017-09-10T17:18:47.897Z,79.80
2017-09-10T17:21:15.959Z,79.70
2017-09-10T17:23:44.175Z,80.10
2017-09-10T17:26:12.444Z,80.00
2017-09-10T17:28:40.664Z,80.40
2017-09-10T17:31:09.648Z,80.90
2017-09-10T17:33:37.658Z,80.90
2017-09-10T17:36:05.914Z,81.10
2017-09-10T17:38:34.150Z,81.60
2017-09-10T17:41:02.391Z,80.90
2017-09-10T17:43:30.645Z,81.90
2017-09-10T17:45:58.866Z,81.10
2017-09-10T17:48:26.963Z,80.90
2017-09-10T17:50:55.217Z,80.80
2017-09-10T17:53:23.250Z,81.00
2017-09-10T17:55:51.362Z,81.50
2017-09-10T17:58:19.589Z,81.30
2017-09-10T18:00:47.630Z,81.40
2017-09-10T18:03:16.637Z,81.80
2017-09-10T18:05:44.891Z,81.80
2017-09-10T18:08:13.104Z,81.60
2017-09-10T18:10:41.356Z,81.90
2017-09-10T18:13:09.632Z,82.60
2017-09-10T18:15:38.646Z,82.20
2017-09-10T18:18:06.876Z,82.10
2017-09-10T18:20:34.953Z,82.10
2017-09-10T18:23:03.205Z,82.10
2017-09-10T18:25:32.245Z,83.00
2017-09-10T18:28:00.474Z,82.80
2017-09-10T18:30:28.734Z,83.60
2017-09-10T18:32:57.040Z,82.80
2017-09-10T18:35:25.260Z,83.00
2017-09-10T18:37:53.484Z,83.50
2017-09-10T18:40:21.724Z,83.30
2017-09-10T18:42:50.729Z,84.10
2017-09-10T18:45:18.947Z,84.00
2017-09-10T18:47:47.042Z,83.70
2017-09-10T18:50:15.101Z,83.00
2017-09-10T18:52:43.173Z,83.60
2017-09-10T18:55:11.450Z,83.30
2017-09-10T18:57:39.518Z,84.20
2017-09-10T19:00:07.766Z,84.00
2017-09-10T19:02:36.043Z,84.20
2017-09-10T19:05:04.135Z,84.00
2017-09-10T19:07:32.585Z,84.50
2017-09-10T19:10:01.625Z,84.70
2017-09-10T19:12:29.860Z,84.60
2017-09-10T19:14:58.091Z,84.30
2017-09-10T19:17:27.108Z,84.10
2017-09-10T19:19:55.331Z,83.90
2017-09-10T19:22:23.598Z,84.10
2017-09-10T19:24:52.628Z,84.20
2017-09-10T19:27:20.885Z,84.60
2017-09-10T19:29:49.133Z,85.20
2017-09-10T19:32:17.372Z,85.30
2017-09-10T19:34:45.596Z,84.90
2017-09-10T19:37:14.621Z,84.50
2017-09-10T19:39:42.860Z,84.40
2017-09-10T19:42:11.113Z,84.60
2017-09-10T19:44:39.336Z,84.70
2017-09-10T19:47:07.421Z,84.70
2017-09-10T19:49:36.216Z,84.40
2017-09-10T19:52:04.438Z,84.40
2017-09-10T19:54:33.474Z,84.50
2017-09-10T19:57:01.726Z,84.50
2017-09-10T19:59:29.984Z,85.20
2017-09-10T20:01:58.253Z,85.80
2017-09-10T20:04:26.505Z,85.90
2017-09-10T20:06:54.753Z,86.00
2017-09-10T20:09:23.024Z,85.70
2017-09-10T20:11:51.051Z,86.10
2017-09-10T20:14:19.280Z,85.80
2017-09-10T20:16:48.296Z,85.10
2017-09-10T20:19:16.742Z,85.00
2017-09-10T20:21:44.787Z,86.30
2017-09-10T20:24:13.708Z,85.40
2017-09-10T20:26:41.954Z,85.40
2017-09-10T20:29:10.241Z,86.40
2017-09-10T20:31:38.502Z,85.90
2017-09-10T20:34:06.718Z,84.80
2017-09-10T20:36:34.943Z,85.50
2017-09-10T20:39:03.512Z,85.50
2017-09-10T20:41:32.508Z,86.10
2017-09-10T20:44:01.491Z,84.60
2017-09-10T20:46:29.774Z,84.60
2017-09-10T20:48:58.025Z,85.10
2017-09-10T20:51:26.092Z,86.30
2017-09-10T20:53:54.356Z,85.90
2017-09-10T20:56:22.579Z,86.90
2017-09-10T20:58:50.827Z,84.90
2017-09-10T21:01:19.869Z,85.40
2017-09-10T21:03:48.104Z,85.30
2017-09-10T21:06:16.332Z,85.50
2017-09-10T21:08:44.571Z,84.20
2017-09-10T21:11:13.605Z,85.60
2017-09-10T21:13:41.636Z,85.60
2017-09-10T21:16:09.924Z,85.20
2017-09-10T21:18:38.217Z,85.30
2017-09-10T21:21:06.514Z,85.60
2017-09-10T21:23:34.803Z,85.90
2017-09-10T21:26:02.856Z,85.70
2017-09-10T21:28:31.019Z,85.30
2017-09-10T21:30:59.658Z,85.70
2017-09-10T21:33:28.161Z,85.30
2017-09-10T21:35:56.406Z,85.40
2017-09-10T21:38:24.681Z,85.20
2017-09-10T21:40:52.933Z,85.80
2017-09-10T21:43:21.148Z,85.60
2017-09-10T21:45:49.392Z,85.90
2017-09-10T21:48:18.419Z,85.70
2017-09-10T21:50:46.662Z,85.70
2017-09-10T21:53:15.978Z,85.30
2017-09-10T21:55:44.249Z,85.20
2017-09-10T21:58:12.518Z,85.30
2017-09-10T22:00:40.791Z,85.50
2017-09-10T22:03:10.545Z,85.60
2017-09-10T22:05:38.817Z,85.60
2017-09-10T22:08:07.059Z,85.30
2017-09-10T22:10:35.276Z,85.10
2017-09-10T22:13:03.529Z,85.30
2017-09-10T22:15:32.578Z,85.40
2017-09-10T22:18:00.832Z,85.30
2017-09-10T22:20:29.052Z,85.80
2017-09-10T22:22:57.320Z,85.30
2017-09-10T22:25:25.536Z,85.50
2017-09-10T22:27:54.528Z,84.60
2017-09-10T22:30:22.776Z,84.60
